Time;durP1;ratioP1;P1;durP2;ratioP2;P2;SDS_P1;SDS_P2;PMS_P1;PMS_P2;Temp;Humidity;BMP_temperature;BMP_pressure;BME280_temperature;BME280_humidity;BME280_pressure;Samples;Min_cycle;Max_cycle;Signal;HPM_P1;HPM_P2
2022/12/29 00:02:08;;;;;;;6.70;3.10;;;;;;;3.18;56.29;96640.90;105588;1301;25523;-86
2022/12/29 00:04:39;;;;;;;6.70;3.00;;;;;;;3.21;56.27;96640.89;105608;1303;26302;-85
2022/12/29 00:07:11;;;;;;;4.70;2.90;;;;;;;3.20;56.35;96638.20;105615;1292;22523;-85
2022/12/29 00:09:42;;;;;;;5.30;3.20;;;;;;;3.17;56.47;96633.39;105682;1300;22461;-86
2022/12/29 00:12:13;;;;;;;6.10;3.40;;;;;;;3.16;56.68;96641.55;105626;1294;75228;-86
2022/12/29 00:17:32;;;;;;;6.40;3.20;;;;;;;3.20;56.72;96624.27;105561;1302;25269;-86
2022/12/29 00:37:04;;;;;;;5.30;3.20;;;;;;;3.11;57.43;96648.55;105633;1288;22570;-85
2022/12/29 00:45:15;;;;;;;6.20;3.10;;;;;;;3.12;57.61;96649.63;105488;1302;27860;-85
2022/12/29 00:47:46;;;;;;;8.70;4.20;;;;;;;3.13;57.81;96652.63;105557;1304;23798;-85
2022/12/29 00:50:19;;;;;;;7.40;3.30;;;;;;;3.12;57.83;96655.86;105528;1302;22533;-85
2022/12/29 00:52:50;;;;;;;9.20;3.60;;;;;;;3.16;57.72;96637.28;103984;1293;2152465;-84
2022/12/29 00:55:21;;;;;;;5.90;3.50;;;;;;;3.18;57.75;96633.19;104061;1296;2070032;-86
2022/12/29 00:57:52;;;;;;;8.60;3.60;;;;;;;3.20;57.67;96628.56;105584;1278;23289;-84
2022/12/29 01:00:23;;;;;;;7.30;3.30;;;;;;;3.23;57.65;96613.16;105613;1281;23819;-84
2022/12/29 01:02:54;;;;;;;8.20;3.60;;;;;;;3.22;57.74;96607.86;104317;1281;1787571;-85
2022/12/29 01:05:25;;;;;;;8.50;3.90;;;;;;;3.18;58.06;96627.48;101666;1295;5322246;-84
2022/12/29 01:07:56;;;;;;;7.80;3.70;;;;;;;3.14;58.16;96644.16;105564;1289;22487;-84
2022/12/29 01:10:27;;;;;;;7.60;4.00;;;;;;;3.12;58.21;96651.78;105659;1302;25226;-84
2022/12/29 01:13:00;;;;;;;7.00;4.50;;;;;;;3.11;58.34;96659.23;105574;1302;24352;-84
2022/12/29 01:15:31;;;;;;;8.70;4.60;;;;;;;3.07;58.43;96659.92;101663;1302;5377725;-86
2022/12/29 01:18:03;;;;;;;10.20;4.50;;;;;;;3.06;58.53;96656.29;105580;1293;22565;-85
2022/12/29 01:20:34;;;;;;;7.80;3.60;;;;;;;3.09;58.49;96657.23;105564;1302;22498;-85
2022/12/29 01:23:06;;;;;;;9.10;5.30;;;;;;;3.10;58.52;96656.39;104561;1302;2109177;-83
2022/12/29 01:25:40;;;;;;;10.30;4.80;;;;;;;3.06;58.71;96646.98;105627;1289;23491;-86
2022/12/29 01:28:14;;;;;;;9.00;4.20;;;;;;;3.01;58.79;96645.02;105749;1302;22563;-84
2022/12/29 01:30:45;;;;;;;6.70;4.50;;;;;;;2.99;58.94;96648.92;105650;1294;23977;-84
2022/12/29 01:33:16;;;;;;;8.50;4.50;;;;;;;2.98;59.11;96643.66;104288;1297;1837525;-83
2022/12/29 01:35:47;;;;;;;6.30;3.80;;;;;;;2.97;59.20;96642.72;104346;1297;1839407;-84
2022/12/29 01:38:18;;;;;;;6.80;3.70;;;;;;;2.99;59.28;96636.26;105630;1294;22543;-84
2022/12/29 01:40:49;;;;;;;7.10;4.30;;;;;;;3.07;59.35;96641.44;105623;1302;23269;-84
2022/12/29 01:43:21;;;;;;;6.60;3.70;;;;;;;3.14;59.26;96635.95;105585;1301;26685;-84
2022/12/29 01:45:54;;;;;;;5.60;3.30;;;;;;;3.17;59.24;96639.36;105678;1301;23888;-83
2022/12/29 01:48:26;;;;;;;6.30;3.40;;;;;;;3.17;59.35;96627.55;105758;1301;22594;-85
2022/12/29 01:50:57;;;;;;;7.80;3.90;;;;;;;3.14;59.49;96632.28;105722;1301;25239;-83
2022/12/29 01:53:33;;;;;;;6.80;3.40;;;;;;;3.11;59.54;96634.00;105640;1286;96603;-83
2022/12/29 01:56:09;;;;;;;11.70;3.60;;;;;;;3.08;59.71;96615.58;104653;1302;1391480;-84
2022/12/29 01:58:47;;;;;;;7.40;3.90;;;;;;;3.04;59.81;96617.12;105687;1281;22520;-84
2022/12/29 02:01:21;;;;;;;8.50;4.60;;;;;;;3.00;59.98;96613.29;105591;1302;23401;-84
2022/12/29 02:03:53;;;;;;;6.80;3.90;;;;;;;3.01;60.20;96602.72;101798;1281;5307019;-84
2022/12/29 02:06:29;;;;;;;6.30;3.60;;;;;;;3.03;60.31;96599.77;105591;1302;22544;-84
2022/12/29 02:09:01;;;;;;;7.80;2.90;;;;;;;3.10;60.31;96609.72;105557;1302;22592;-84
2022/12/29 02:11:36;;;;;;;8.10;3.40;;;;;;;3.19;60.47;96600.98;105559;1302;22457;-84
2022/12/29 02:14:11;;;;;;;3.90;1.60;;;;;;;3.31;60.42;96601.66;101537;1302;5414911;-84
2022/12/29 02:16:59;;;;;;;5.20;2.50;;;;;;;3.63;59.69;96601.59;105639;1297;22462;-84
2022/12/29 02:20:08;;;;;;;3.70;1.80;;;;;;;3.99;59.28;96607.16;105582;1302;22497;-86
2022/12/29 02:22:53;;;;;;;4.50;2.00;;;;;;;4.25;58.40;96607.69;104030;1303;1907611;-84
2022/12/29 02:25:53;;;;;;;5.20;2.60;;;;;;;4.39;58.19;96617.45;104287;1301;1814723;-85
2022/12/29 02:28:59;;;;;;;3.10;1.80;;;;;;;4.49;57.81;96612.91;105684;1302;22539;-85
2022/12/29 02:31:39;;;;;;;4.60;2.50;;;;;;;4.56;57.37;96614.98;105630;1302;24923;-84
2022/12/29 02:34:24;;;;;;;4.00;2.50;;;;;;;4.56;57.40;96617.23;102576;1302;2125924;-84
2022/12/29 02:37:04;;;;;;;5.10;2.60;;;;;;;4.47;57.17;96619.92;105761;1278;22551;-84
2022/12/29 02:39:39;;;;;;;;;;;;;;;4.39;57.10;96619.00;105634;1300;22678;-84
2022/12/29 02:42:15;;;;;;;3.20;2.10;;;;;;;4.33;57.28;96621.67;105681;1302;22486;-84
2022/12/29 02:44:56;;;;;;;4.50;2.60;;;;;;;4.32;57.37;96630.48;104170;1295;2005317;-84
2022/12/29 02:47:33;;;;;;;5.10;3.00;;;;;;;4.26;57.60;96619.39;105610;1302;24216;-84
2022/12/29 02:50:09;;;;;;;6.80;3.10;;;;;;;4.23;57.88;96613.55;105703;1274;25101;-84
2022/12/29 02:52:49;;;;;;;5.10;2.90;;;;;;;4.20;58.06;96607.92;105769;1300;22469;-84
2022/12/29 02:55:20;;;;;;;4.90;2.50;;;;;;;4.21;58.19;96595.55;104331;1302;1782027;-83
2022/12/29 02:58:07;;;;;;;1.50;1.30;;;;;;;4.26;57.93;96580.59;105672;1302;23419;-84
2022/12/29 03:00:47;;;;;;;4.60;2.30;;;;;;;4.47;57.19;96566.02;105730;1285;22501;-85
2022/12/29 03:03:30;;;;;;;3.80;2.00;;;;;;;4.73;56.60;96572.98;105742;1301;23659;-86
2022/12/29 03:06:23;;;;;;;3.90;2.00;;;;;;;4.94;55.97;96554.99;105601;1289;24104;-86
2022/12/29 03:09:01;;;;;;;4.50;2.10;;;;;;;5.02;55.63;96562.61;105694;1288;22498;-85
2022/12/29 03:17:35;;;;;;;5.00;2.90;;;;;;;4.84;56.46;96541.58;105608;1302;22533;-85
2022/12/29 03:20:15;;;;;;;6.30;3.60;;;;;;;4.75;56.39;96538.46;105739;1302;22490;-86
2022/12/29 03:22:49;;;;;;;6.10;3.10;;;;;;;4.83;56.28;96529.38;105791;1302;22586;-87
2022/12/29 03:25:24;;;;;;;3.30;1.80;;;;;;;4.79;56.26;96553.60;103012;1293;1858692;-84
2022/12/29 03:28:00;;;;;;;4.80;2.60;;;;;;;4.71;56.83;96551.08;105766;1296;22488;-84
2022/12/29 03:30:35;;;;;;;5.00;2.30;;;;;;;4.68;57.19;96540.73;105713;1288;22461;-86
2022/12/29 03:33:09;;;;;;;4.40;2.20;;;;;;;4.87;57.13;96536.04;104351;1295;2094858;-85
2022/12/29 03:35:42;;;;;;;4.70;2.00;;;;;;;4.98;56.77;96531.20;104206;1300;2149820;-87
2022/12/29 03:38:18;;;;;;;3.80;2.10;;;;;;;4.95;56.67;96544.45;105647;1278;26703;-88
2022/12/29 03:40:56;;;;;;;4.70;2.80;;;;;;;4.90;56.95;96543.52;105784;1301;22487;-87
2022/12/29 03:43:29;;;;;;;2.40;1.90;;;;;;;4.83;57.01;96542.55;101603;1301;5527824;-85
2022/12/29 03:46:00;;;;;;;4.80;2.30;;;;;;;4.63;57.38;96545.17;103259;1301;1929664;-85
2022/12/29 03:48:32;;;;;;;3.30;2.20;;;;;;;4.41;57.75;96548.23;105749;1301;22457;-85
2022/12/29 03:51:05;;;;;;;6.10;3.20;;;;;;;4.28;58.41;96545.45;105838;1303;22504;-85
2022/12/29 03:53:40;;;;;;;6.10;3.10;;;;;;;4.26;58.60;96548.42;104283;1288;2013764;-84
2022/12/29 03:56:11;;;;;;;5.50;2.60;;;;;;;4.15;58.87;96566.03;101685;1282;5435068;-86
2022/12/29 03:58:42;;;;;;;4.80;2.50;;;;;;;4.02;59.38;96561.93;105613;1302;22463;-85
2022/12/29 04:01:13;;;;;;;5.60;2.90;;;;;;;3.93;59.94;96552.45;105597;1296;24296;-85
2022/12/29 04:03:44;;;;;;;5.90;3.00;;;;;;;3.88;60.19;96557.73;104253;1295;1868796;-85
2022/12/29 04:06:16;;;;;;;5.50;2.60;;;;;;;3.87;60.39;96552.20;105722;1301;23394;-86
2022/12/29 04:08:47;;;;;;;4.60;2.60;;;;;;;3.89;60.71;96536.17;105843;1301;22474;-86
2022/12/29 04:11:18;;;;;;;4.90;2.60;;;;;;;3.91;60.90;96542.08;105767;1303;22459;-84
2022/12/29 04:13:49;;;;;;;4.20;2.80;;;;;;;3.96;60.87;96543.75;104035;1301;2360120;-86
2022/12/29 04:16:20;;;;;;;6.00;2.20;;;;;;;4.04;61.05;96534.48;105652;1302;27258;-86
2022/12/29 04:18:51;;;;;;;3.80;2.20;;;;;;;4.13;61.11;96542.57;105778;1295;22530;-85
2022/12/29 04:21:22;;;;;;;4.10;2.50;;;;;;;4.27;60.93;96553.88;105491;1294;24363;-85
2022/12/29 04:23:53;;;;;;;4.80;2.40;;;;;;;4.50;60.48;96546.73;103089;1276;1814481;-86
2022/12/29 04:26:24;;;;;;;4.80;1.80;;;;;;;4.78;59.82;96547.54;105777;1287;25114;-86
2022/12/29 04:28:55;;;;;;;6.30;2.70;;;;;;;4.86;59.37;96551.79;105854;1300;22530;-85
2022/12/29 04:31:26;;;;;;;3.30;1.90;;;;;;;4.87;59.51;96560.94;105826;1285;22497;-85
2022/12/29 04:33:59;;;;;;;4.40;1.90;;;;;;;4.82;59.58;96554.68;103160;1303;1871680;-85
2022/12/29 04:36:31;;;;;;;5.30;2.70;;;;;;;4.82;59.84;96545.91;105829;1287;25546;-85
2022/12/29 04:39:02;;;;;;;4.60;2.20;;;;;;;4.87;59.69;96536.56;105641;1302;22475;-85
2022/12/29 04:41:36;;;;;;;5.50;2.60;;;;;;;4.95;59.71;96542.24;105744;1300;24899;-86
2022/12/29 04:44:07;;;;;;;14.50;5.00;;;;;;;5.04;59.45;96536.36;104420;1302;1789426;-86
2022/12/29 04:46:38;;;;;;;5.90;2.50;;;;;;;5.10;59.47;96535.86;104652;1274;1587667;-85
2022/12/29 04:49:11;;;;;;;6.20;2.70;;;;;;;5.15;59.08;96531.86;105718;1301;24246;-86
2022/12/29 04:51:42;;;;;;;5.50;2.80;;;;;;;5.23;59.31;96531.77;105881;1301;23790;-88
2022/12/29 04:54:13;;;;;;;6.10;2.40;;;;;;;5.28;59.01;96535.27;103112;1284;1821716;-85
2022/12/29 04:56:45;;;;;;;3.10;1.60;;;;;;;5.41;58.96;96529.58;104256;1301;2005908;-84
2022/12/29 04:59:16;;;;;;;3.90;1.90;;;;;;;5.33;59.03;96531.17;105699;1294;22476;-84
2022/12/29 05:01:47;;;;;;;4.60;2.80;;;;;;;5.13;59.15;96542.25;105752;1302;22491;-84
2022/12/29 05:04:18;;;;;;;4.10;2.50;;;;;;;4.88;59.59;96537.73;105745;1301;31487;-86
2022/12/29 05:06:50;;;;;;;5.10;2.50;;;;;;;4.65;60.15;96548.35;105850;1294;24979;-84
2022/12/29 05:09:21;;;;;;;6.40;2.90;;;;;;;4.50;60.52;96544.95;105850;1295;22513;-86
2022/12/29 05:11:52;;;;;;;4.80;2.40;;;;;;;4.41;60.85;96542.71;105873;1285;22497;-85
2022/12/29 05:14:24;;;;;;;3.90;2.60;;;;;;;4.31;61.17;96539.56;102896;1287;2008683;-84
2022/12/29 05:16:54;;;;;;;4.50;2.80;;;;;;;4.18;61.62;96542.73;104426;1302;1757317;-86
2022/12/29 05:19:26;;;;;;;3.30;1.90;;;;;;;4.10;61.90;96549.61;105581;1290;22592;-84
2022/12/29 05:21:57;;;;;;;4.90;2.90;;;;;;;4.11;62.25;96561.27;105593;1302;22518;-84
2022/12/29 05:24:28;;;;;;;6.70;2.70;;;;;;;4.18;62.35;96541.00;102952;1301;2092790;-84
2022/12/29 05:26:59;;;;;;;6.60;3.10;;;;;;;4.30;62.42;96529.58;104172;1302;2053279;-86
2022/12/29 05:29:30;;;;;;;6.10;2.90;;;;;;;4.41;62.44;96528.81;105774;1302;23275;-84
2022/12/29 05:32:01;;;;;;;4.10;2.10;;;;;;;4.48;62.24;96543.08;105836;1278;23256;-86
2022/12/29 05:34:33;;;;;;;5.80;2.40;;;;;;;4.54;62.22;96531.67;105641;1302;23853;-85
2022/12/29 05:37:04;;;;;;;4.80;2.70;;;;;;;4.63;62.26;96520.45;105683;1294;25221;-84
2022/12/29 05:39:35;;;;;;;4.80;2.50;;;;;;;4.77;61.97;96507.96;105695;1294;22644;-86
2022/12/29 05:42:06;;;;;;;4.40;2.50;;;;;;;4.79;61.88;96512.16;105691;1301;23332;-85
2022/12/29 05:44:37;;;;;;;3.40;2.20;;;;;;;4.81;61.98;96523.42;104267;1279;1814516;-84
2022/12/29 05:47:08;;;;;;;5.40;2.80;;;;;;;4.80;62.05;96502.88;104250;1302;1777104;-84
2022/12/29 05:49:41;;;;;;;4.50;2.40;;;;;;;4.79;62.04;96498.13;105611;1303;22463;-84
2022/12/29 05:52:12;;;;;;;3.80;2.40;;;;;;;4.88;62.03;96485.77;105571;1303;22516;-84
2022/12/29 05:54:43;;;;;;;5.20;2.90;;;;;;;4.93;62.10;96496.42;105525;1302;74154;-86
2022/12/29 05:57:15;;;;;;;6.60;2.80;;;;;;;4.92;62.04;96504.27;103776;1285;2618317;-83
2022/12/29 05:59:46;;;;;;;3.70;2.00;;;;;;;4.91;62.14;96497.15;105692;1302;22484;-84
2022/12/29 06:02:17;;;;;;;5.20;2.00;;;;;;;4.92;62.06;96512.83;105692;1281;22513;-86
2022/12/29 06:04:48;;;;;;;5.30;2.60;;;;;;;4.94;61.98;96492.59;105683;1301;23064;-85
2022/12/29 06:07:19;;;;;;;4.90;2.00;;;;;;;4.95;61.99;96509.73;102360;1280;4689372;-84
2022/12/29 06:09:50;;;;;;;3.90;1.80;;;;;;;4.93;62.28;96509.17;105770;1301;23283;-84
2022/12/29 06:12:21;;;;;;;4.40;2.50;;;;;;;4.90;62.27;96516.11;105742;1297;22488;-83
2022/12/29 06:14:52;;;;;;;2.40;1.70;;;;;;;4.89;62.52;96505.38;101805;1278;5278464;-84
2022/12/29 06:17:26;;;;;;;4.20;2.30;;;;;;;4.88;62.56;96516.45;105725;1302;22478;-84
2022/12/29 06:19:57;;;;;;;2.80;1.90;;;;;;;4.89;62.67;96525.04;105785;1286;22617;-83
2022/12/29 06:22:28;;;;;;;5.20;2.70;;;;;;;4.92;62.72;96524.06;105743;1294;22492;-84
2022/12/29 06:25:00;;;;;;;3.10;2.10;;;;;;;4.93;62.86;96529.96;104516;1281;1758566;-85
2022/12/29 06:27:31;;;;;;;4.90;2.30;;;;;;;4.90;62.76;96537.18;105657;1287;22489;-85
2022/12/29 06:30:02;;;;;;;3.90;2.30;;;;;;;4.87;62.99;96542.14;105670;1295;22495;-84
2022/12/29 06:32:34;;;;;;;4.70;2.50;;;;;;;4.86;62.93;96557.63;105772;1300;24284;-83
2022/12/29 06:35:05;;;;;;;3.20;2.60;;;;;;;4.91;62.77;96557.48;102831;1300;2291594;-84
2022/12/29 06:37:37;;;;;;;5.10;2.20;;;;;;;4.93;63.11;96563.55;105729;1301;23760;-84
2022/12/29 06:40:10;;;;;;;5.10;2.20;;;;;;;4.95;62.83;96563.05;105637;1294;23061;-84
2022/12/29 06:42:42;;;;;;;7.00;2.10;;;;;;;5.02;62.82;96572.33;105595;1303;23022;-84
2022/12/29 06:45:14;;;;;;;2.60;1.70;;;;;;;5.04;62.70;96573.94;102217;1289;2328952;-87
2022/12/29 06:47:47;;;;;;;3.20;2.30;;;;;;;5.10;62.78;96584.69;105553;1303;22468;-85
2022/12/29 06:50:19;;;;;;;6.40;3.10;;;;;;;5.15;62.77;96585.73;105666;1302;22555;-86
2022/12/29 06:52:50;;;;;;;4.00;2.40;;;;;;;5.29;62.53;96579.29;105677;1302;24272;-84
2022/12/29 06:55:22;;;;;;;3.40;2.10;;;;;;;5.35;62.62;96579.11;101741;1288;1839188;-84
2022/12/29 06:57:57;;;;;;;3.70;2.10;;;;;;;5.37;62.55;96571.14;105610;1302;22617;-84
2022/12/29 07:00:28;;;;;;;4.00;2.40;;;;;;;5.46;62.24;96566.39;105699;1291;24328;-83
2022/12/29 07:03:00;;;;;;;4.90;2.30;;;;;;;5.54;62.19;96565.85;105663;1294;22476;-84
2022/12/29 07:05:32;;;;;;;4.00;2.00;;;;;;;5.58;62.21;96567.20;104381;1302;1757682;-84
2022/12/29 07:08:04;;;;;;;3.20;1.70;;;;;;;5.65;62.21;96570.02;105655;1290;25348;-83
2022/12/29 07:10:35;;;;;;;4.50;2.40;;;;;;;5.66;62.18;96552.30;105616;1302;22495;-84
2022/12/29 07:13:08;;;;;;;4.80;2.10;;;;;;;5.72;61.70;96547.73;105597;1302;22460;-86
2022/12/29 07:15:40;;;;;;;4.50;2.10;;;;;;;5.82;61.33;96540.56;104241;1302;1789550;-88
2022/12/29 07:18:11;;;;;;;4.90;2.40;;;;;;;5.88;60.90;96537.94;105733;1287;22508;-85
2022/12/29 07:20:42;;;;;;;4.20;2.10;;;;;;;5.89;61.03;96558.30;105672;1302;25392;-85
2022/12/29 07:23:14;;;;;;;4.00;2.80;;;;;;;5.86;61.10;96557.80;105746;1285;26574;-84
2022/12/29 07:25:45;;;;;;;3.90;2.40;;;;;;;5.83;61.23;96553.94;104235;1301;2173375;-85
2022/12/29 07:28:16;;;;;;;4.10;2.70;;;;;;;5.79;61.52;96557.17;105711;1294;22491;-83
2022/12/29 07:30:51;;;;;;;5.60;2.60;;;;;;;5.83;61.60;96561.46;105862;1273;22531;-83
2022/12/29 07:33:23;;;;;;;5.70;3.40;;;;;;;5.84;61.32;96553.37;105746;1287;23862;-84
2022/12/29 07:35:57;;;;;;;4.60;2.90;;;;;;;5.81;61.45;96567.60;101799;1302;1800672;-84
2022/12/29 07:38:28;;;;;;;4.80;3.10;;;;;;;5.75;61.37;96563.33;105673;1303;22468;-87
2022/12/29 07:41:03;;;;;;;3.40;2.20;;;;;;;5.70;61.63;96562.96;105775;1288;22777;-86
2022/12/29 07:43:37;;;;;;;4.60;2.50;;;;;;;5.67;61.86;96556.00;105793;1301;22652;-85
2022/12/29 07:46:12;;;;;;;4.90;2.80;;;;;;;5.63;61.88;96560.58;105674;1303;25649;-84
2022/12/29 07:48:43;;;;;;;6.40;2.50;;;;;;;5.68;61.70;96557.95;105790;1300;22943;-84
2022/12/29 07:51:14;;;;;;;6.30;3.60;;;;;;;5.66;61.71;96551.09;105720;1293;22499;-83
2022/12/29 07:53:46;;;;;;;7.60;4.00;;;;;;;5.58;62.02;96553.47;105731;1294;22481;-83
2022/12/29 07:56:17;;;;;;;5.30;3.20;;;;;;;5.52;62.09;96557.78;100880;1297;2365656;-82
2022/12/29 07:58:49;;;;;;;6.60;3.70;;;;;;;5.49;62.15;96543.17;105736;1287;22509;-83
2022/12/29 08:01:21;;;;;;;5.90;3.60;;;;;;;5.50;62.31;96556.08;105755;1294;25271;-82
2022/12/29 08:03:52;;;;;;;9.30;5.50;;;;;;;5.52;62.29;96539.80;105735;1296;22498;-83
2022/12/29 08:06:25;;;;;;;15.20;9.10;;;;;;;5.56;62.31;96528.95;104097;1302;2107308;-83
2022/12/29 08:09:00;;;;;;;15.90;8.80;;;;;;;5.71;62.19;96522.95;105698;1288;22506;-83
2022/12/29 08:11:31;;;;;;;8.00;4.50;;;;;;;5.90;61.87;96535.86;105733;1296;22487;-84
2022/12/29 08:14:09;;;;;;;20.80;13.80;;;;;;;6.04;61.52;96529.79;105260;1302;7707813;-83
2022/12/29 08:16:41;;;;;;;14.90;9.50;;;;;;;6.15;61.50;96533.61;101953;1303;5081917;-83
2022/12/29 08:19:14;;;;;;;10.20;6.40;;;;;;;6.33;61.07;96532.33;105722;1302;22492;-84
2022/12/29 08:21:45;;;;;;;11.70;7.80;;;;;;;6.49;60.61;96529.54;105752;1294;22545;-83
2022/12/29 08:24:17;;;;;;;6.10;3.40;;;;;;;6.52;60.49;96534.15;105798;1300;23274;-84
2022/12/29 08:26:49;;;;;;;15.70;10.00;;;;;;;6.57;60.44;96533.48;101771;1302;5183940;-84
2022/12/29 08:29:21;;;;;;;7.70;4.80;;;;;;;6.62;60.05;96539.52;105695;1290;25213;-84
2022/12/29 08:31:53;;;;;;;13.30;9.10;;;;;;;6.63;60.25;96535.80;105664;1287;22480;-84
2022/12/29 08:34:24;;;;;;;5.60;3.50;;;;;;;6.64;60.36;96533.86;104335;1302;1764283;-84
2022/12/29 08:36:56;;;;;;;14.30;9.20;;;;;;;6.73;60.08;96533.69;105627;1294;67986;-84
2022/12/29 08:39:28;;;;;;;7.90;4.70;;;;;;;6.85;59.48;96532.74;105788;1294;23885;-83
2022/12/29 08:41:59;;;;;;;9.30;5.00;;;;;;;6.78;59.01;96543.30;105816;1297;22473;-86
2022/12/29 08:44:31;;;;;;;9.70;5.80;;;;;;;6.65;59.46;96536.95;105745;1296;65245;-83
2022/12/29 08:47:03;;;;;;;7.20;4.80;;;;;;;6.50;59.91;96531.48;104229;1298;2049561;-83
2022/12/29 08:49:35;;;;;;;8.60;4.60;;;;;;;6.37;60.46;96531.04;105787;1303;22533;-84
2022/12/29 08:52:08;;;;;;;7.80;5.30;;;;;;;6.30;60.46;96536.08;105808;1293;22444;-84
2022/12/29 08:54:40;;;;;;;8.00;4.50;;;;;;;6.30;60.79;96528.45;105675;1302;78892;-83
2022/12/29 08:57:12;;;;;;;10.10;5.70;;;;;;;6.36;60.93;96540.93;104275;1287;2086310;-83
2022/12/29 08:59:43;;;;;;;8.70;4.90;;;;;;;6.38;60.83;96540.00;105812;1301;22522;-83
2022/12/29 09:02:15;;;;;;;9.60;5.30;;;;;;;6.39;61.00;96538.80;105879;1295;24283;-83
2022/12/29 09:04:49;;;;;;;10.40;5.60;;;;;;;6.39;61.15;96548.54;103210;1301;1844661;-83
2022/12/29 09:07:20;;;;;;;9.20;6.30;;;;;;;6.43;61.20;96549.30;105677;1301;49331;-83
2022/12/29 09:09:51;;;;;;;9.50;6.10;;;;;;;6.49;61.19;96547.50;105808;1271;25371;-83
2022/12/29 09:12:23;;;;;;;11.60;5.60;;;;;;;6.53;61.29;96535.84;105671;1302;22537;-83
2022/12/29 09:14:54;;;;;;;11.80;7.20;;;;;;;6.61;60.94;96536.93;103951;1302;2456270;-83
2022/12/29 09:17:45;;;;;;;14.50;9.30;;;;;;;6.75;60.97;96527.06;104463;1301;1815288;-84
2022/12/29 09:20:21;;;;;;;12.10;7.70;;;;;;;6.93;60.53;96525.15;105807;1299;22491;-83
2022/12/29 09:22:53;;;;;;;13.20;9.00;;;;;;;7.05;60.20;96513.18;105780;1288;23819;-83
2022/12/29 09:25:24;;;;;;;13.00;8.10;;;;;;;7.13;60.12;96524.86;100574;1301;5067262;-82
2022/12/29 09:27:56;;;;;;;13.00;7.20;;;;;;;7.14;59.72;96525.13;104499;1278;1759202;-83
2022/12/29 09:30:27;;;;;;;15.30;9.60;;;;;;;7.14;59.81;96528.30;105699;1302;22524;-83
2022/12/29 09:32:58;;;;;;;9.70;6.20;;;;;;;7.18;59.27;96525.98;105760;1295;23881;-84
2022/12/29 09:35:30;;;;;;;19.90;12.70;;;;;;;7.21;59.19;96518.05;104460;1302;1770490;-83
2022/12/29 09:38:01;;;;;;;12.90;8.10;;;;;;;7.25;59.02;96513.52;104226;1303;2051556;-83
2022/12/29 09:40:35;;;;;;;7.80;4.80;;;;;;;7.31;58.14;96509.36;105673;1294;22577;-84
2022/12/29 09:43:30;;;;;;;6.90;4.50;;;;;;;7.42;58.28;96506.02;105733;1296;22449;-84
2022/12/29 09:46:17;;;;;;;7.70;4.20;;;;;;;7.52;57.54;96514.28;99667;1293;5482064;-84
2022/12/29 09:48:52;;;;;;;7.70;4.60;;;;;;;7.58;57.04;96507.42;105783;1301;22469;-84
2022/12/29 09:51:26;;;;;;;8.10;5.20;;;;;;;7.59;57.00;96510.60;105718;1302;23867;-85
2022/12/29 09:54:03;;;;;;;7.80;4.60;;;;;;;7.47;56.76;96510.46;105725;1302;23268;-84
2022/12/29 09:56:34;;;;;;;5.10;3.20;;;;;;;7.32;57.21;96510.38;101711;1280;5141240;-84
2022/12/29 09:59:13;;;;;;;7.30;4.00;;;;;;;7.29;57.30;96507.77;105643;1302;23377;-84
2022/12/29 10:01:50;;;;;;;6.80;4.50;;;;;;;7.35;57.46;96507.65;105548;1293;22606;-83
2022/12/29 10:04:22;;;;;;;10.30;5.50;;;;;;;7.51;57.64;96512.90;105634;1302;22554;-84
2022/12/29 10:06:58;;;;;;;9.40;5.90;;;;;;;7.76;57.92;96506.09;105566;1295;57129;-84
2022/12/29 10:09:43;;;;;;;11.60;6.50;;;;;;;7.98;57.82;96501.62;105773;1302;22473;-84
2022/12/29 10:12:28;;;;;;;11.40;6.90;;;;;;;8.19;57.58;96501.98;105761;1296;23957;-85
2022/12/29 10:15:13;;;;;;;11.40;5.90;;;;;;;8.35;57.68;96499.29;105727;1301;87075;-85
2022/12/29 10:17:52;;;;;;;8.80;4.80;;;;;;;8.46;57.30;96504.27;104821;1301;1694424;-87
2022/12/29 10:20:32;;;;;;;6.70;4.60;;;;;;;8.56;57.06;96501.27;106061;1278;27377;-85
2022/12/29 10:23:21;;;;;;;7.10;4.50;;;;;;;8.71;57.12;96500.45;105924;1281;23790;-88
2022/12/29 10:25:57;;;;;;;8.30;4.40;;;;;;;8.85;56.17;96495.70;103294;1300;3319463;-87
2022/12/29 10:28:40;;;;;;;12.50;7.10;;;;;;;9.03;55.90;96491.47;105720;1297;27349;-87
2022/12/29 10:31:21;;;;;;;9.00;5.50;;;;;;;9.19;56.21;96489.66;105741;1302;23824;-86
2022/12/29 10:33:54;;;;;;;;;;;;;;;9.30;55.98;96494.79;105735;1288;23654;-86
2022/12/29 10:36:35;;;;;;;8.20;4.40;;;;;;;9.43;56.18;96497.84;103952;1299;2343399;-87
2022/12/29 10:39:17;;;;;;;10.20;6.60;;;;;;;9.52;55.79;96499.48;105717;1296;22471;-87
2022/12/29 10:41:52;;;;;;;9.10;5.00;;;;;;;9.68;56.14;96497.11;105827;1295;24177;-87
2022/12/29 10:44:28;;;;;;;7.80;4.90;;;;;;;9.78;55.11;96491.69;105714;1302;22479;-87
2022/12/29 10:47:05;;;;;;;10.30;4.90;;;;;;;9.85;54.35;96488.63;103841;1301;2547799;-87
2022/12/29 10:49:42;;;;;;;7.20;3.70;;;;;;;9.86;53.85;96489.25;105725;1301;22499;-87
2022/12/29 10:52:16;;;;;;;4.70;3.10;;;;;;;9.86;52.84;96482.33;105738;1300;22467;-88
2022/12/29 10:54:57;;;;;;;5.40;3.20;;;;;;;9.77;52.25;96476.67;105639;1299;22463;-88
2022/12/29 10:57:33;;;;;;;4.50;2.90;;;;;;;9.79;52.31;96485.96;104443;1297;1761622;-87
2022/12/29 11:00:16;;;;;;;6.40;3.50;;;;;;;9.87;52.34;96491.58;105803;1301;22550;-87
2022/12/29 11:03:13;;;;;;;6.60;3.30;;;;;;;9.94;51.63;96487.91;105728;1302;24077;-88
2022/12/29 11:05:51;;;;;;;5.20;2.70;;;;;;;9.93;51.21;96491.90;100220;1293;5132021;-88
2022/12/29 11:08:26;;;;;;;6.10;3.50;;;;;;;9.88;51.63;96489.89;105657;1297;23291;-89
2022/12/29 11:11:06;;;;;;;4.00;2.50;;;;;;;9.90;51.37;96482.46;105835;1302;23942;-89
2022/12/29 11:13:47;;;;;;;7.70;2.50;;;;;;;9.92;51.11;96471.84;105761;1295;22458;-86
2022/12/29 11:16:31;;;;;;;5.10;3.10;;;;;;;9.97;50.10;96473.76;100493;1285;5236405;-86
2022/12/29 11:19:03;;;;;;;6.60;3.40;;;;;;;9.97;50.31;96477.09;105686;1302;23834;-87
2022/12/29 11:21:40;;;;;;;3.90;2.00;;;;;;;9.98;50.34;96465.27;105736;1302;22478;-88
2022/12/29 11:24:24;;;;;;;6.00;3.30;;;;;;;9.98;50.15;96473.36;105782;1300;22496;-88
2022/12/29 11:27:09;;;;;;;7.90;4.30;;;;;;;10.00;50.33;96464.69;104325;1293;1784914;-87
2022/12/29 11:29:42;;;;;;;7.20;4.90;;;;;;;10.13;51.67;96472.89;105726;1302;26618;-87
2022/12/29 11:32:20;;;;;;;7.70;4.60;;;;;;;10.27;51.73;96473.23;105780;1301;22485;-86
2022/12/29 11:34:54;;;;;;;6.90;4.30;;;;;;;10.37;52.40;96470.22;105747;1302;22472;-87
2022/12/29 11:37:31;;;;;;;5.20;2.90;;;;;;;10.54;51.94;96472.11;101872;1302;2575857;-87
2022/12/29 11:40:07;;;;;;;5.20;2.90;;;;;;;10.67;50.10;96473.02;105743;1302;22485;-87
2022/12/29 11:42:41;;;;;;;7.00;3.70;;;;;;;10.65;49.82;96464.88;105505;1291;22490;-87
2022/12/29 11:45:25;;;;;;;7.70;4.50;;;;;;;10.50;48.25;96464.89;105448;1304;25226;-87
2022/12/29 11:48:02;;;;;;;9.90;5.90;;;;;;;10.33;49.95;96467.77;104151;1303;1807349;-87
2022/12/29 11:50:38;;;;;;;14.50;8.60;;;;;;;10.18;50.95;96467.39;105433;1304;24405;-87
2022/12/29 11:53:24;;;;;;;22.80;13.50;;;;;;;9.93;51.68;96468.75;105564;1305;22480;-86
2022/12/29 11:56:01;;;;;;;22.70;16.10;;;;;;;9.67;52.16;96466.67;103584;1304;2592987;-86
2022/12/29 11:58:34;;;;;;;10.10;5.50;;;;;;;9.54;52.45;96466.97;103912;1305;2096729;-86
2022/12/29 12:01:11;;;;;;;9.90;5.40;;;;;;;9.46;52.79;96456.02;105429;1304;24230;-86
2022/12/29 12:03:48;;;;;;;8.20;5.50;;;;;;;9.42;53.16;96454.98;105486;1277;22495;-87
2022/12/29 12:06:24;;;;;;;9.00;6.30;;;;;;;9.40;53.40;96455.35;104091;1305;1793778;-87
2022/12/29 12:09:02;;;;;;;7.80;4.90;;;;;;;9.32;53.73;96452.30;105381;1305;23879;-86
2022/12/29 12:11:37;;;;;;;9.80;5.90;;;;;;;9.19;54.03;96450.41;105435;1291;22545;-86
2022/12/29 12:14:18;;;;;;;8.90;5.40;;;;;;;9.13;54.10;96460.42;105414;1304;22517;-85
2022/12/29 12:16:55;;;;;;;8.70;5.70;;;;;;;9.00;54.43;96462.29;104038;1289;1868407;-85
2022/12/29 12:19:40;;;;;;;9.80;5.10;;;;;;;8.83;54.66;96459.92;105512;1296;22681;-85
2022/12/29 12:22:17;;;;;;;9.50;5.70;;;;;;;8.68;55.27;96460.55;105436;1295;22484;-87
2022/12/29 12:24:56;;;;;;;11.00;6.70;;;;;;;8.56;55.62;96458.15;105403;1305;24297;-85
2022/12/29 12:27:31;;;;;;;16.00;10.10;;;;;;;8.50;55.92;96460.98;102266;1295;2512020;-86
2022/12/29 12:30:12;;;;;;;9.70;5.20;;;;;;;8.46;56.29;96460.20;105483;1291;22550;-85
2022/12/29 12:32:52;;;;;;;9.70;5.70;;;;;;;8.43;56.55;96461.03;105440;1305;23996;-85